createdAt,value
2023-03-29T00:03:21.676Z,1.45
2023-03-29T00:07:25.881Z,1.33
2023-03-29T00:11:27.893Z,1.40
2023-03-29T00:15:30.028Z,1.40
2023-03-29T00:19:35.612Z,1.30
2023-03-29T00:23:37.674Z,1.17
2023-03-29T00:27:40.954Z,1.50
2023-03-29T00:31:45.915Z,1.35
2023-03-29T00:35:48.403Z,1.23
2023-03-29T00:39:50.456Z,1.30
2023-03-29T00:44:01.166Z,1.50
2023-03-29T00:48:26.289Z,1.50
2023-03-29T00:52:32.206Z,1.30
2023-03-29T00:56:38.541Z,1.40
2023-03-29T01:00:48.608Z,1.20
2023-03-29T01:04:59.161Z,1.50
2023-03-29T01:09:04.404Z,1.42
2023-03-29T01:13:12.026Z,1.20
2023-03-29T01:17:15.952Z,1.20
2023-03-29T01:21:45.900Z,1.42
2023-03-29T01:26:14.136Z,1.40
2023-03-29T01:30:24.769Z,1.45
2023-03-29T01:35:10.206Z,1.30
2023-03-29T01:39:12.388Z,1.30
2023-03-29T01:43:22.560Z,1.48
2023-03-29T01:47:46.737Z,1.38
2023-03-29T01:52:01.208Z,1.30
2023-03-29T01:56:36.866Z,1.52
2023-03-29T02:00:41.192Z,1.42
2023-03-29T02:04:54.016Z,1.20
2023-03-29T02:08:56.196Z,1.48
2023-03-29T02:12:58.667Z,1.40
2023-03-29T02:17:18.350Z,1.52
2023-03-29T02:21:34.012Z,1.50
2023-03-29T02:25:37.874Z,1.73
2023-03-29T02:29:40.767Z,1.48
2023-03-29T02:33:53.233Z,1.30
2023-03-29T02:37:57.208Z,1.77
2023-03-29T02:41:59.605Z,1.40
2023-03-29T02:46:02.934Z,1.50
2023-03-29T02:50:06.579Z,1.60
2023-03-29T02:54:21.313Z,1.40
2023-03-29T02:58:26.633Z,1.40
2023-03-29T03:02:29.578Z,1.50
2023-03-29T03:06:32.087Z,1.60
2023-03-29T03:10:35.652Z,1.60
2023-03-29T03:14:39.458Z,1.60
2023-03-29T03:18:42.299Z,1.48
2023-03-29T03:22:48.767Z,1.65
2023-03-29T03:26:50.907Z,1.50
2023-03-29T03:30:54.552Z,1.40
2023-03-29T03:35:23.110Z,1.50
2023-03-29T03:39:25.170Z,1.40
2023-03-29T03:43:28.701Z,1.55
2023-03-29T03:47:31.807Z,1.42
2023-03-29T03:51:47.579Z,1.70
2023-03-29T03:55:55.797Z,1.48
2023-03-29T04:00:01.377Z,1.60
2023-03-29T04:04:14.913Z,1.70
2023-03-29T04:08:28.338Z,1.80
2023-03-29T04:12:50.600Z,1.70
2023-03-29T04:16:53.967Z,2.03
2023-03-29T04:21:17.001Z,1.98
2023-03-29T04:25:22.262Z,2.10
2023-03-29T04:29:24.243Z,1.83
2023-03-29T04:33:33.907Z,2.15
2023-03-29T04:37:40.200Z,1.90
2023-03-29T04:41:47.270Z,2.25
2023-03-29T04:45:56.469Z,2.30
2023-03-29T04:50:15.652Z,2.28
2023-03-29T04:54:20.218Z,1.80
2023-03-29T04:58:34.711Z,2.53
2023-03-29T05:02:36.874Z,2.20
2023-03-29T05:06:39.132Z,2.58
2023-03-29T05:10:43.902Z,2.25
2023-03-29T05:14:47.190Z,2.05
2023-03-29T05:18:49.605Z,2.20
2023-03-29T05:22:53.256Z,2.30
2023-03-29T05:27:15.226Z,2.25
2023-03-29T05:31:18.455Z,2.10
2023-03-29T05:35:25.451Z,2.35
2023-03-29T05:39:29.098Z,2.20
2023-03-29T05:43:31.568Z,2.10
2023-03-29T05:47:34.032Z,1.92
2023-03-29T05:51:36.842Z,2.08
2023-03-29T05:55:41.183Z,2.20
2023-03-29T05:59:45.041Z,2.08
2023-03-29T06:03:47.751Z,2.17
2023-03-29T06:07:51.961Z,2.25
2023-03-29T06:12:08.986Z,2.30
2023-03-29T06:16:42.736Z,2.47
2023-03-29T06:20:53.867Z,2.72
2023-03-29T06:24:56.549Z,2.50
2023-03-29T06:29:04.223Z,2.45
2023-03-29T06:33:08.009Z,2.40
2023-03-29T06:37:32.735Z,2.45
2023-03-29T06:41:45.057Z,2.40
2023-03-29T06:45:59.513Z,2.50
2023-03-29T06:50:11.650Z,2.50
2023-03-29T06:54:36.875Z,2.78
2023-03-29T06:58:39.190Z,2.10
2023-03-29T07:02:56.426Z,2.70
2023-03-29T07:07:01.607Z,2.33
2023-03-29T07:11:07.058Z,2.70
2023-03-29T07:15:22.696Z,4.47
2023-03-29T07:19:57.000Z,2.03
2023-03-29T07:24:21.408Z,2.83
2023-03-29T07:28:23.764Z,3.13
2023-03-29T07:32:30.600Z,3.17
2023-03-29T07:36:50.377Z,2.00
2023-03-29T07:40:54.241Z,2.17
2023-03-29T07:45:26.556Z,1.88
2023-03-29T07:49:45.398Z,1.85
2023-03-29T07:53:47.757Z,2.30
2023-03-29T07:58:05.453Z,2.22
2023-03-29T08:02:10.979Z,2.70
2023-03-29T08:06:16.741Z,2.15
2023-03-29T08:10:20.645Z,2.10
2023-03-29T08:14:28.748Z,2.17
2023-03-29T08:18:41.500Z,2.00
2023-03-29T08:22:44.249Z,2.30
2023-03-29T08:26:55.886Z,2.35
2023-03-29T08:30:59.985Z,3.20
2023-03-29T08:35:04.419Z,2.78
2023-03-29T08:39:12.348Z,3.03
2023-03-29T08:43:30.505Z,2.88
2023-03-29T08:48:02.418Z,2.97
2023-03-29T08:52:14.253Z,3.22
2023-03-29T08:56:33.548Z,2.08
2023-03-29T09:00:59.322Z,2.40
2023-03-29T09:05:18.021Z,2.47
2023-03-29T09:09:34.432Z,2.45
2023-03-29T09:14:25.714Z,2.20
2023-03-29T09:18:43.743Z,2.20
2023-03-29T09:22:47.038Z,2.00
2023-03-29T09:26:56.055Z,1.92
2023-03-29T09:31:16.639Z,1.92
2023-03-29T09:35:31.032Z,2.00
2023-03-29T09:39:33.509Z,2.00
2023-03-29T09:43:43.955Z,2.00
2023-03-29T09:47:58.118Z,2.33
2023-03-29T09:52:09.106Z,2.15
2023-03-29T09:56:11.415Z,2.17
2023-03-29T10:00:20.982Z,2.50
2023-03-29T10:04:26.031Z,2.42
2023-03-29T10:08:44.370Z,2.10
2023-03-29T10:12:56.814Z,2.40
2023-03-29T10:16:59.714Z,1.90
2023-03-29T10:21:04.491Z,2.30
2023-03-29T10:25:14.712Z,2.00
2023-03-29T10:29:16.806Z,1.80
2023-03-29T10:33:23.975Z,2.95
2023-03-29T10:37:28.443Z,2.95
2023-03-29T10:41:34.607Z,4.70
2023-03-29T10:45:38.306Z,2.78
2023-03-29T10:49:43.131Z,2.10
2023-03-29T10:53:47.085Z,2.35
2023-03-29T10:58:08.278Z,2.13
2023-03-29T11:02:30.259Z,2.00
2023-03-29T11:06:35.638Z,1.30
2023-03-29T11:11:16.762Z,1.00
2023-03-29T11:15:37.468Z,1.55
2023-03-29T11:20:00.268Z,1.98
2023-03-29T11:24:33.945Z,1.80
2023-03-29T11:28:53.032Z,1.60
2023-03-29T11:33:15.246Z,1.10
2023-03-29T11:37:31.980Z,1.48
2023-03-29T11:41:38.807Z,1.63
2023-03-29T11:45:54.514Z,1.90
2023-03-29T11:50:03.033Z,2.03
2023-03-29T11:54:13.926Z,2.72
2023-03-29T11:58:23.156Z,2.08
2023-03-29T12:02:25.359Z,2.10
2023-03-29T12:06:53.516Z,2.10
2023-03-29T12:11:12.214Z,2.10
2023-03-29T12:15:20.271Z,2.30
2023-03-29T12:19:31.156Z,2.08
2023-03-29T12:23:33.822Z,1.88
2023-03-29T12:27:59.513Z,1.30
2023-03-29T12:32:19.965Z,1.42
2023-03-29T12:36:48.522Z,1.63
2023-03-29T12:41:19.234Z,1.52
2023-03-29T12:45:48.328Z,1.40
2023-03-29T12:49:58.501Z,1.33
2023-03-29T12:54:14.384Z,1.23
2023-03-29T12:58:50.059Z,1.10
2023-03-29T13:03:04.771Z,1.48
2023-03-29T13:07:32.320Z,1.52
2023-03-29T13:11:40.740Z,1.65
2023-03-29T13:15:43.279Z,1.70
2023-03-29T13:20:16.680Z,1.80
2023-03-29T13:24:38.130Z,1.50
2023-03-29T13:29:03.303Z,2.10
2023-03-29T13:33:18.972Z,1.98
2023-03-29T13:37:38.617Z,2.30
2023-03-29T13:41:40.739Z,1.55
2023-03-29T13:45:42.946Z,1.58
2023-03-29T13:49:54.618Z,1.88
2023-03-29T13:54:28.416Z,1.85
2023-03-29T13:58:41.213Z,1.60
2023-03-29T14:03:02.003Z,1.70
2023-03-29T14:07:08.151Z,2.05
2023-03-29T14:11:25.579Z,1.80
2023-03-29T14:15:41.476Z,1.58
2023-03-29T14:19:43.975Z,1.40
2023-03-29T14:23:53.684Z,1.80
2023-03-29T14:27:55.799Z,1.70
2023-03-29T14:32:17.857Z,1.50
2023-03-29T14:36:21.254Z,1.40
2023-03-29T14:40:24.415Z,1.70
2023-03-29T14:44:33.051Z,2.00
2023-03-29T14:48:36.541Z,1.48
2023-03-29T14:52:40.145Z,1.92
2023-03-29T14:56:42.556Z,2.65
2023-03-29T15:00:50.009Z,2.97
2023-03-29T15:05:04.669Z,3.10
2023-03-29T15:09:13.007Z,2.80
2023-03-29T15:13:21.076Z,2.70
2023-03-29T15:17:51.787Z,3.40
2023-03-29T15:21:54.442Z,2.90
2023-03-29T15:25:58.724Z,3.47
2023-03-29T15:30:02.746Z,3.40
2023-03-29T15:34:24.030Z,3.92
2023-03-29T15:38:36.800Z,3.97
2023-03-29T15:42:45.911Z,3.00
2023-03-29T15:46:48.136Z,3.60
2023-03-29T15:50:50.703Z,3.10
2023-03-29T15:54:52.688Z,3.22
2023-03-29T15:58:54.809Z,3.35
2023-03-29T16:02:57.240Z,3.28
2023-03-29T16:06:59.309Z,4.22
2023-03-29T16:11:01.336Z,2.65
2023-03-29T16:15:15.053Z,2.50
2023-03-29T16:19:17.128Z,2.75
2023-03-29T16:23:19.097Z,2.40
2023-03-29T16:27:21.298Z,2.17
2023-03-29T16:31:26.977Z,2.00
2023-03-29T16:35:32.878Z,2.20
2023-03-29T16:39:35.008Z,2.20
2023-03-29T16:43:38.653Z,2.08
2023-03-29T16:47:44.536Z,2.40
2023-03-29T16:51:47.267Z,2.70
2023-03-29T16:55:49.326Z,2.60
2023-03-29T16:59:51.517Z,2.10
2023-03-29T17:03:53.503Z,2.42
2023-03-29T17:07:56.182Z,2.17
2023-03-29T17:11:58.237Z,1.98
2023-03-29T17:16:00.663Z,2.22
2023-03-29T17:20:06.467Z,2.03
2023-03-29T17:24:09.707Z,2.15
2023-03-29T17:28:11.954Z,2.05
2023-03-29T17:32:14.134Z,1.80
2023-03-29T17:36:16.155Z,1.92
2023-03-29T17:40:18.474Z,2.08
2023-03-29T17:44:22.043Z,2.20
2023-03-29T17:48:24.460Z,4.05
2023-03-29T17:52:27.039Z,2.70
2023-03-29T17:56:29.058Z,1.92
2023-03-29T18:00:31.169Z,1.90
2023-03-29T18:04:33.951Z,1.90
2023-03-29T18:08:35.972Z,1.60
2023-03-29T18:12:38.001Z,1.98
2023-03-29T18:16:41.324Z,2.22
2023-03-29T18:20:45.200Z,2.30
2023-03-29T18:24:48.121Z,2.00
2023-03-29T18:28:50.998Z,3.10
2023-03-29T18:32:53.253Z,3.30
2023-03-29T18:36:55.799Z,2.40
2023-03-29T18:40:57.910Z,2.50
2023-03-29T18:45:00.048Z,2.55
2023-03-29T18:49:02.692Z,2.00
2023-03-29T18:53:04.841Z,4.07
2023-03-29T18:57:06.936Z,3.63
2023-03-29T19:01:10.634Z,1.90
2023-03-29T19:05:12.709Z,2.10
2023-03-29T19:09:14.944Z,1.98
2023-03-29T19:13:17.077Z,1.63
2023-03-29T19:17:19.270Z,1.50
2023-03-29T19:21:21.513Z,1.67
2023-03-29T19:25:23.748Z,1.38
2023-03-29T19:29:26.225Z,1.42
2023-03-29T19:33:29.338Z,1.50
2023-03-29T19:37:31.524Z,1.80
2023-03-29T19:41:33.614Z,1.73
2023-03-29T19:45:36.199Z,1.60
2023-03-29T19:49:38.366Z,1.45
2023-03-29T19:53:41.857Z,1.60
2023-03-29T19:57:43.976Z,1.33
2023-03-29T20:01:51.084Z,1.80
2023-03-29T20:09:55.592Z,1.42
2023-03-29T20:13:57.643Z,1.25
2023-03-29T20:18:00.299Z,1.55
2023-03-29T20:22:04.075Z,1.50
2023-03-29T20:26:07.533Z,1.50
2023-03-29T20:30:10.951Z,1.40
2023-03-29T20:34:13.098Z,1.50
2023-03-29T20:38:15.798Z,1.45
2023-03-29T20:42:18.390Z,1.00
2023-03-29T20:46:22.874Z,1.17
2023-03-29T20:50:30.119Z,1.20
2023-03-29T20:54:33.181Z,1.33
2023-03-29T20:58:35.174Z,1.45
2023-03-29T21:02:38.314Z,0.95
2023-03-29T21:06:40.569Z,1.10
2023-03-29T21:10:44.655Z,1.20
2023-03-29T21:14:47.398Z,1.20
2023-03-29T21:18:49.505Z,1.50
2023-03-29T21:22:51.693Z,1.40
2023-03-29T21:26:53.847Z,1.40
2023-03-29T21:30:56.343Z,2.10
2023-03-29T21:34:58.444Z,1.60
2023-03-29T21:39:00.452Z,1.40
2023-03-29T21:43:02.461Z,1.40
2023-03-29T21:47:04.667Z,1.38
2023-03-29T21:51:07.251Z,1.98
2023-03-29T21:55:09.500Z,1.50
2023-03-29T21:59:11.822Z,1.30
2023-03-29T22:03:15.098Z,1.20
2023-03-29T22:07:17.253Z,1.10
2023-03-29T22:11:19.829Z,1.45
2023-03-29T22:15:21.926Z,1.20
2023-03-29T22:19:24.009Z,1.10
2023-03-29T22:23:26.087Z,1.40
2023-03-29T22:27:28.229Z,1.08
2023-03-29T22:31:32.431Z,1.20
2023-03-29T22:35:35.633Z,1.10
2023-03-29T22:39:37.973Z,1.17
2023-03-29T22:43:40.447Z,1.40
2023-03-29T22:47:42.553Z,1.90
2023-03-29T22:51:44.571Z,1.38
2023-03-29T22:55:46.592Z,1.65
2023-03-29T22:59:48.607Z,1.52
2023-03-29T23:03:50.887Z,1.02
2023-03-29T23:07:53.038Z,1.10
2023-03-29T23:11:55.195Z,1.15
2023-03-29T23:15:59.761Z,1.40
2023-03-29T23:20:02.062Z,1.15
2023-03-29T23:24:04.374Z,1.10
2023-03-29T23:28:06.547Z,1.40
2023-03-29T23:32:08.741Z,1.00
2023-03-29T23:36:13.365Z,1.30
2023-03-29T23:40:15.564Z,1.30
2023-03-29T23:44:17.552Z,1.30
2023-03-29T23:48:20.113Z,1.00
2023-03-29T23:52:23.076Z,1.33
2023-03-29T23:56:25.159Z,1.60
